Elk Mountain AWOS, WY

Date: 2024-06-11 04:35:00Z

Type: METAR

Weather: Thunderstorms, Gusty Winds

Winds: 300° at 11 kts, Gusting to 19 kts

Visibility: 10+

Ceiling (AGL FT): Clouds CLR at 6000, SCATTERED at 16000, BROKEN at 4600, OVERCAST at 4500

RAW METAR: KEHY 110435Z AUTO 30011G19KT 10SM TS CLR 17/01 A3014 RMK AO2

project-image